Time;durP1;ratioP1;P1;durP2;ratioP2;P2;SDS_P1;SDS_P2;PMS_P1;PMS_P2;Temp;Humidity;BMP_temperature;BMP_pressure;BME280_temperature;BME280_humidity;BME280_pressure;Samples;Min_cycle;Max_cycle;Signal;HPM_P1;HPM_P2
2022/01/10 00:01:49;;;;;;;33.77;16.20;;;;;;;7.97;100.00;98040.88;5064018;28;20220;-75
2022/01/10 00:04:15;;;;;;;33.50;16.40;;;;;;;7.98;100.00;98049.38;5066675;28;20196;-75
2022/01/10 00:06:42;;;;;;;29.17;15.30;;;;;;;8.03;100.00;98061.03;5064129;28;20196;-75
2022/01/10 00:09:09;;;;;;;28.40;15.03;;;;;;;8.04;100.00;98070.38;5070730;28;20231;-75
2022/01/10 00:11:36;;;;;;;31.60;14.67;;;;;;;8.06;100.00;98071.13;5071774;28;20196;-75
2022/01/10 00:14:03;;;;;;;27.30;15.27;;;;;;;8.06;100.00;98066.00;5072185;28;20196;-76
2022/01/10 00:16:31;;;;;;;30.87;16.97;;;;;;;8.03;100.00;98066.16;5063329;28;20211;-75
2022/01/10 00:18:57;;;;;;;34.77;17.73;;;;;;;8.05;100.00;98066.91;5063856;28;20257;-76
2022/01/10 00:21:24;;;;;;;41.77;19.10;;;;;;;8.08;100.00;98064.22;5071034;28;20200;-75
2022/01/10 00:23:51;;;;;;;42.13;20.03;;;;;;;8.08;100.00;98071.06;5066556;28;20204;-75
2022/01/10 00:26:18;;;;;;;33.13;17.13;;;;;;;8.04;100.00;98072.91;5068197;28;20571;-76
2022/01/10 00:28:45;;;;;;;40.70;18.60;;;;;;;8.02;100.00;98072.13;5071794;28;20199;-75
2022/01/10 00:31:11;;;;;;;40.77;19.30;;;;;;;7.87;100.00;98065.09;5063445;28;20208;-76
2022/01/10 00:33:40;;;;;;;44.80;22.70;;;;;;;7.86;100.00;98073.66;5068210;28;20655;-76
2022/01/10 00:36:07;;;;;;;50.47;21.70;;;;;;;7.89;100.00;98065.88;5064085;28;20197;-76
2022/01/10 00:38:35;;;;;;;36.93;19.10;;;;;;;7.88;100.00;98061.69;5068214;28;20672;-75
2022/01/10 00:41:02;;;;;;;42.57;18.53;;;;;;;7.91;100.00;98066.66;5066403;28;20250;-75
2022/01/10 00:43:39;;;;;;;31.97;16.60;;;;;;;7.94;100.00;98071.63;5067341;28;20218;-75
2022/01/10 00:46:06;;;;;;;42.57;17.33;;;;;;;7.95;100.00;98063.06;5071905;28;20246;-76
2022/01/10 00:48:32;;;;;;;37.93;17.23;;;;;;;7.90;100.00;98055.63;5072487;28;20196;-76
2022/01/10 00:51:01;;;;;;;31.53;15.40;;;;;;;7.93;100.00;98064.84;5069818;28;20207;-76
2022/01/10 00:53:27;;;;;;;32.73;16.97;;;;;;;7.81;100.00;98039.84;5068970;28;20192;-76
2022/01/10 00:55:54;;;;;;;30.43;16.10;;;;;;;7.91;100.00;98051.34;5066537;28;20192;-76
2022/01/10 00:58:21;;;;;;;34.33;16.60;;;;;;;7.89;100.00;98048.00;5066130;28;20281;-76
2022/01/10 01:00:48;;;;;;;30.13;16.87;;;;;;;7.88;100.00;98041.25;5068514;28;20680;-75
2022/01/10 01:03:15;;;;;;;33.73;17.57;;;;;;;7.89;100.00;98042.91;5071535;28;20226;-75
2022/01/10 01:05:43;;;;;;;39.67;18.80;;;;;;;7.87;100.00;98042.16;5072006;28;20667;-75
2022/01/10 01:08:13;;;;;;;34.20;18.00;;;;;;;7.87;100.00;98034.50;5071208;28;20658;-76
2022/01/10 01:13:51;;;;;;;36.37;18.87;;;;;;;7.77;100.00;98033.22;5012029;28;20237;-76
2022/01/10 01:16:29;;;;;;;32.40;17.37;;;;;;;7.76;100.00;98029.00;5012767;28;20233;-75
2022/01/10 01:19:30;;;;;;;33.07;17.83;;;;;;;7.80;100.00;98026.25;5041872;28;20196;-75
2022/01/10 01:24:42;;;;;;;37.70;18.77;;;;;;;7.87;100.00;98021.75;5063332;28;20207;-76
2022/01/10 01:27:09;;;;;;;40.23;18.20;;;;;;;7.79;100.00;98021.22;5069901;28;20192;-75
2022/01/10 01:29:35;;;;;;;37.97;18.50;;;;;;;7.77;100.00;98013.63;5066428;28;20196;-76
2022/01/10 01:32:02;;;;;;;44.83;19.83;;;;;;;7.78;100.00;98009.38;5070139;28;20204;-76
2022/01/10 01:34:29;;;;;;;41.87;19.37;;;;;;;7.72;100.00;98014.72;5071330;28;20599;-76
2022/01/10 01:36:56;;;;;;;41.47;20.17;;;;;;;7.64;100.00;98001.44;5063594;28;20205;-75
2022/01/10 01:39:28;;;;;;;41.07;18.10;;;;;;;7.71;100.00;98006.25;5063816;28;20213;-76
2022/01/10 01:42:02;;;;;;;34.83;17.67;;;;;;;7.72;100.00;98001.97;5064085;28;20303;-75
2022/01/10 01:44:29;;;;;;;35.87;18.57;;;;;;;7.74;100.00;98005.28;5063158;28;20719;-76
2022/01/10 01:46:56;;;;;;;36.00;18.43;;;;;;;7.77;100.00;97997.50;5065117;28;20192;-76
2022/01/10 01:49:23;;;;;;;35.83;18.43;;;;;;;7.81;100.00;98009.25;5068188;28;20200;-76
2022/01/10 01:51:51;;;;;;;32.40;17.37;;;;;;;7.78;100.00;98004.28;5068306;28;20575;-76
2022/01/10 01:54:20;;;;;;;31.93;17.50;;;;;;;7.80;100.00;97997.38;5066956;28;20200;-76
2022/01/10 01:56:48;;;;;;;31.40;17.37;;;;;;;7.78;100.00;97997.44;5064115;28;20204;-76
2022/01/10 01:59:16;;;;;;;29.60;18.20;;;;;;;7.78;100.00;97994.06;5058525;28;20204;-75
2022/01/10 02:01:43;;;;;;;30.90;17.10;;;;;;;7.80;100.00;97982.91;5059341;28;20625;-75
2022/01/10 02:04:10;;;;;;;32.97;18.10;;;;;;;7.81;100.00;97989.66;5058119;28;20584;-75
2022/01/10 02:06:37;;;;;;;34.10;19.40;;;;;;;7.83;100.00;97992.13;5062589;28;20504;-76
2022/01/10 02:09:04;;;;;;;32.43;17.73;;;;;;;7.81;100.00;97988.84;5068191;28;20777;-76
2022/01/10 02:11:31;;;;;;;34.63;17.93;;;;;;;7.81;100.00;97988.84;5060350;28;20672;-76
2022/01/10 02:13:59;;;;;;;35.90;18.47;;;;;;;7.82;100.00;97993.03;5067544;28;20200;-76
2022/01/10 02:16:41;;;;;;;36.10;18.90;;;;;;;7.80;100.00;97992.25;5068788;28;20700;-75
2022/01/10 02:19:08;;;;;;;36.33;18.03;;;;;;;7.69;100.00;97979.16;5067401;28;20714;-76
2022/01/10 02:21:37;;;;;;;34.77;17.73;;;;;;;7.69;100.00;97994.44;5062944;28;20561;-76
2022/01/10 02:24:04;;;;;;;44.20;18.93;;;;;;;7.68;100.00;97992.78;5069612;28;20560;-76
2022/01/10 02:26:31;;;;;;;37.80;18.47;;;;;;;7.58;100.00;98001.69;5062923;28;20472;-75
2022/01/10 02:28:58;;;;;;;35.00;17.33;;;;;;;7.54;100.00;97997.59;5068821;28;20257;-75
2022/01/10 02:31:25;;;;;;;37.37;19.03;;;;;;;7.53;100.00;97994.22;5069344;28;20611;-75
2022/01/10 02:33:56;;;;;;;40.27;20.23;;;;;;;7.50;100.00;97988.41;5069418;28;20665;-76
2022/01/10 02:36:26;;;;;;;40.43;17.83;;;;;;;7.43;100.00;97992.13;5070209;28;20196;-75
2022/01/10 02:38:56;;;;;;;42.53;19.90;;;;;;;7.36;100.00;97982.16;5069654;28;20196;-75
2022/01/10 02:41:25;;;;;;;42.73;20.10;;;;;;;7.51;100.00;97990.06;5067290;28;20573;-75
2022/01/10 02:43:53;;;;;;;43.47;20.27;;;;;;;7.54;100.00;98000.16;5061261;28;20209;-75
2022/01/10 02:46:20;;;;;;;35.23;19.13;;;;;;;7.55;100.00;97996.72;5063577;28;20200;-75
2022/01/10 02:48:47;;;;;;;44.00;20.37;;;;;;;7.54;100.00;97997.59;5064505;28;20741;-76
2022/01/10 02:51:14;;;;;;;37.00;17.47;;;;;;;7.57;100.00;97994.94;5066116;28;20203;-75
2022/01/10 02:53:41;;;;;;;41.90;20.10;;;;;;;7.62;100.00;97988.78;5069449;28;20254;-75
2022/01/10 02:56:11;;;;;;;33.77;18.50;;;;;;;7.62;100.00;97983.66;5059014;28;20270;-76
2022/01/10 02:58:38;;;;;;;41.23;18.00;;;;;;;7.66;100.00;97979.25;5066821;28;20196;-75
2022/01/10 03:01:06;;;;;;;40.27;17.80;;;;;;;7.69;100.00;97979.16;5067308;28;20254;-75
2022/01/10 03:03:33;;;;;;;34.50;17.63;;;;;;;7.71;100.00;97983.28;5059852;28;20220;-74
2022/01/10 03:06:00;;;;;;;43.90;18.17;;;;;;;7.70;100.00;97981.63;5057962;28;20573;-76
2022/01/10 03:08:30;;;;;;;41.37;18.77;;;;;;;7.65;100.00;97968.25;5062503;28;20216;-75
2022/01/10 03:10:57;;;;;;;42.87;18.03;;;;;;;7.73;100.00;97980.66;5062510;28;20232;-75
2022/01/10 03:13:25;;;;;;;40.37;17.97;;;;;;;7.66;100.00;97979.25;5068672;28;20196;-75
2022/01/10 03:15:52;;;;;;;33.33;16.47;;;;;;;7.60;100.00;97967.59;5068824;28;20197;-76
2022/01/10 03:18:19;;;;;;;38.83;18.73;;;;;;;7.65;100.00;97982.72;5068084;28;20206;-75
2022/01/10 03:20:46;;;;;;;46.20;18.73;;;;;;;7.61;100.00;97966.69;5068698;28;20706;-74
2022/01/10 03:23:13;;;;;;;42.53;18.27;;;;;;;7.72;100.00;97981.56;5067740;28;20212;-75
2022/01/10 03:25:40;;;;;;;41.40;18.87;;;;;;;7.74;100.00;97979.78;5064314;28;20201;-76
2022/01/10 03:28:10;;;;;;;49.20;19.10;;;;;;;7.76;100.00;97983.91;5065197;28;20196;-76
2022/01/10 03:30:38;;;;;;;42.50;19.50;;;;;;;7.78;100.00;97984.69;5063338;28;20288;-76
2022/01/10 03:33:05;;;;;;;46.67;20.40;;;;;;;7.75;100.00;97989.94;5069549;28;20203;-75
2022/01/10 03:35:32;;;;;;;46.73;19.47;;;;;;;7.76;100.00;97991.56;5065691;28;20196;-76
2022/01/10 03:37:59;;;;;;;44.87;19.30;;;;;;;7.77;100.00;97993.22;5072540;28;20196;-76
2022/01/10 03:40:26;;;;;;;42.27;18.73;;;;;;;7.80;100.00;97989.72;5071494;28;20208;-75
2022/01/10 03:42:53;;;;;;;41.47;18.67;;;;;;;7.83;100.00;97997.25;5071018;28;20208;-75
2022/01/10 03:45:20;;;;;;;42.07;20.10;;;;;;;7.84;100.00;98004.00;5068587;28;20258;-76
2022/01/10 03:47:48;;;;;;;42.93;19.33;;;;;;;7.85;100.00;98001.38;5066060;28;20673;-76
2022/01/10 03:50:15;;;;;;;47.27;21.23;;;;;;;7.88;100.00;98015.75;5064199;28;20219;-76
2022/01/10 03:52:42;;;;;;;49.27;19.20;;;;;;;7.87;100.00;98014.09;5069598;28;20204;-76
2022/01/10 03:55:10;;;;;;;44.57;19.13;;;;;;;7.89;100.00;98012.28;5065545;28;20281;-75
2022/01/10 03:57:37;;;;;;;41.70;19.97;;;;;;;7.88;100.00;98024.22;5070708;28;20204;-76
2022/01/10 04:00:06;;;;;;;52.40;20.70;;;;;;;7.90;100.00;98024.16;5070089;28;20196;-74
2022/01/10 04:02:34;;;;;;;49.07;20.73;;;;;;;7.92;100.00;98032.56;5070167;28;20229;-75
2022/01/10 04:05:02;;;;;;;44.33;20.13;;;;;;;7.92;100.00;98027.47;5069802;28;20603;-74
2022/01/10 04:07:29;;;;;;;43.23;19.47;;;;;;;7.93;100.00;98024.03;5060029;28;20207;-75
2022/01/10 04:09:56;;;;;;;46.40;20.00;;;;;;;7.91;100.00;98030.94;5058558;28;20249;-76
2022/01/10 04:12:24;;;;;;;46.90;19.53;;;;;;;7.94;100.00;98030.81;5055955;28;20203;-76
2022/01/10 04:14:51;;;;;;;38.47;18.40;;;;;;;7.95;100.00;98039.28;5067984;28;20196;-75
2022/01/10 04:17:18;;;;;;;43.30;17.77;;;;;;;7.94;100.00;98041.00;5069439;28;20207;-76
2022/01/10 04:19:44;;;;;;;38.20;18.93;;;;;;;7.95;100.00;98042.66;5071853;28;20559;-75
2022/01/10 04:22:13;;;;;;;45.07;18.03;;;;;;;7.97;100.00;98040.88;5067012;28;20192;-75
2022/01/10 04:24:39;;;;;;;39.87;17.27;;;;;;;8.01;100.00;98031.38;5071417;28;20220;-75
2022/01/10 04:27:07;;;;;;;43.67;19.43;;;;;;;8.01;100.00;98034.78;5070916;28;20199;-75
2022/01/10 04:29:33;;;;;;;34.40;16.43;;;;;;;8.03;100.00;98035.53;5071593;28;20204;-76
2022/01/10 04:32:01;;;;;;;38.70;17.67;;;;;;;8.04;100.00;98032.09;5071808;28;20567;-76
2022/01/10 04:34:28;;;;;;;35.50;17.03;;;;;;;8.03;100.00;98029.59;5070487;28;20193;-75
2022/01/10 04:36:55;;;;;;;40.30;19.20;;;;;;;8.05;100.00;98038.81;5070382;28;20199;-76
2022/01/10 04:39:23;;;;;;;39.33;18.63;;;;;;;7.95;100.00;98014.59;5069946;28;20204;-73
2022/01/10 04:41:50;;;;;;;38.93;19.13;;;;;;;7.97;100.00;98035.78;5071300;28;20196;-76
2022/01/10 04:44:16;;;;;;;46.27;21.53;;;;;;;7.98;100.00;98032.31;5069148;28;20216;-76
2022/01/10 04:46:43;;;;;;;48.13;21.63;;;;;;;8.05;100.00;98032.88;5070311;28;20204;-76
2022/01/10 04:49:18;;;;;;;51.80;21.00;;;;;;;8.04;100.00;98037.19;5070327;28;20207;-76
2022/01/10 04:51:45;;;;;;;55.33;22.00;;;;;;;8.02;100.00;98046.63;5066550;28;20208;-76
2022/01/10 04:54:12;;;;;;;49.70;22.53;;;;;;;7.96;100.00;98044.31;5067173;28;20571;-76
2022/01/10 04:56:40;;;;;;;51.23;21.93;;;;;;;7.88;100.00;98038.72;5069653;28;20196;-76
2022/01/10 04:59:07;;;;;;;48.83;20.63;;;;;;;7.89;100.00;98042.91;5070176;28;20199;-75
2022/01/10 05:01:34;;;;;;;47.70;20.27;;;;;;;7.91;100.00;98047.06;5070756;28;20254;-75
2022/01/10 05:04:01;;;;;;;43.13;19.93;;;;;;;7.91;100.00;98048.78;5070802;28;20216;-75
2022/01/10 05:06:28;;;;;;;41.33;20.77;;;;;;;7.91;100.00;98051.34;5070402;28;20672;-76
2022/01/10 05:08:55;;;;;;;38.87;18.03;;;;;;;7.86;100.00;98043.03;5070233;28;20584;-75
2022/01/10 05:11:22;;;;;;;47.53;18.83;;;;;;;7.93;100.00;98054.66;5062836;28;20199;-75
2022/01/10 05:13:50;;;;;;;41.67;19.77;;;;;;;7.89;100.00;98042.91;5061157;28;20195;-75
2022/01/10 05:16:18;;;;;;;47.47;18.43;;;;;;;7.88;100.00;98052.28;5061955;28;20196;-75
2022/01/10 05:18:46;;;;;;;37.90;16.50;;;;;;;7.84;100.00;98045.66;5064430;28;20211;-75
2022/01/10 05:21:13;;;;;;;43.13;19.33;;;;;;;7.82;100.00;98051.69;5069695;28;20228;-76
2022/01/10 05:23:40;;;;;;;41.13;18.80;;;;;;;7.81;100.00;98050.06;5069933;28;20212;-75
2022/01/10 05:26:07;;;;;;;50.43;23.03;;;;;;;7.72;100.00;98056.34;5066487;28;20599;-76
2022/01/10 05:28:34;;;;;;;70.20;28.27;;;;;;;7.66;100.00;98061.69;5066863;28;20279;-76
2022/01/10 05:31:03;;;;;;;64.70;26.53;;;;;;;7.71;100.00;98061.50;5053866;28;20743;-76
2022/01/10 05:33:30;;;;;;;67.83;27.33;;;;;;;7.67;100.00;98062.53;5062522;28;20198;-76
2022/01/10 05:35:57;;;;;;;51.07;24.00;;;;;;;7.61;100.00;98060.22;5068806;28;20200;-76
2022/01/10 05:38:23;;;;;;;46.53;21.63;;;;;;;7.61;100.00;98070.41;5067479;28;20274;-76
2022/01/10 05:40:50;;;;;;;40.70;20.83;;;;;;;7.68;100.00;98066.75;5069132;28;20203;-75
2022/01/10 05:43:17;;;;;;;44.80;21.43;;;;;;;7.64;100.00;98083.03;5068893;28;20219;-76
2022/01/10 05:45:45;;;;;;;39.83;20.17;;;;;;;7.62;100.00;98084.84;5067166;28;20202;-76
2022/01/10 05:48:21;;;;;;;41.73;20.13;;;;;;;7.59;100.00;98079.84;5057689;28;20746;-76
2022/01/10 05:50:48;;;;;;;44.17;18.77;;;;;;;7.54;100.00;98081.75;5061313;28;20200;-77
2022/01/10 05:53:15;;;;;;;41.20;18.03;;;;;;;7.52;100.00;98093.72;5061324;28;20208;-75
2022/01/10 05:55:42;;;;;;;42.93;18.40;;;;;;;7.45;100.00;98088.03;5061852;28;20204;-76
2022/01/10 05:58:09;;;;;;;42.67;17.80;;;;;;;7.54;100.00;98092.78;5060625;28;20208;-75
2022/01/10 06:00:36;;;;;;;45.77;18.70;;;;;;;7.39;100.00;98088.28;5069770;28;20249;-77
2022/01/10 06:03:03;;;;;;;40.17;19.73;;;;;;;7.36;100.00;98094.31;5069535;28;20207;-76
2022/01/10 06:05:32;;;;;;;45.63;18.30;;;;;;;7.45;100.00;98094.84;5064621;28;20219;-76
2022/01/10 06:08:00;;;;;;;40.57;18.13;;;;;;;7.36;100.00;98089.22;5062746;28;20279;-76
2022/01/10 06:10:27;;;;;;;34.27;18.13;;;;;;;7.41;100.00;98111.97;5062551;28;20204;-76
2022/01/10 06:12:54;;;;;;;42.57;17.93;;;;;;;7.45;100.00;98107.59;5064152;28;20208;-76
2022/01/10 06:15:21;;;;;;;50.80;20.50;;;;;;;7.45;100.00;98107.59;5062745;28;20195;-76
2022/01/10 06:17:48;;;;;;;50.40;19.53;;;;;;;7.49;100.00;98104.06;5069897;28;20564;-76
2022/01/10 06:20:16;;;;;;;46.03;19.23;;;;;;;7.45;100.00;98112.69;5055311;28;20193;-76
2022/01/10 06:22:44;;;;;;;40.37;17.37;;;;;;;7.50;100.00;98110.78;5067268;28;20196;-76
2022/01/10 06:25:13;;;;;;;42.50;18.97;;;;;;;7.55;100.00;98119.09;5067972;28;20588;-76
2022/01/10 06:27:40;;;;;;;43.23;18.37;;;;;;;7.61;100.00;98113.78;5062336;28;20200;-75
2022/01/10 06:30:08;;;;;;;48.67;20.23;;;;;;;7.68;100.00;98120.31;5062311;28;20284;-76
2022/01/10 06:32:35;;;;;;;36.17;18.97;;;;;;;7.68;100.00;98113.47;5059855;28;20311;-75
2022/01/10 06:35:02;;;;;;;50.77;23.57;;;;;;;7.70;100.00;98098.09;5060697;28;20211;-76
2022/01/10 06:37:29;;;;;;;47.83;21.50;;;;;;;7.82;100.00;98112.91;5065216;28;20218;-75
2022/01/10 06:39:57;;;;;;;54.67;22.30;;;;;;;7.81;100.00;98121.47;5064533;28;20261;-76
2022/01/10 06:42:24;;;;;;;48.07;20.60;;;;;;;7.84;100.00;98126.47;5064141;28;20235;-76
2022/01/10 06:44:51;;;;;;;45.33;20.63;;;;;;;7.86;100.00;98124.66;5066389;28;20294;-75
2022/01/10 06:47:18;;;;;;;47.93;20.60;;;;;;;7.92;100.00;98122.69;5065271;28;20262;-75
2022/01/10 06:49:45;;;;;;;41.67;20.10;;;;;;;7.92;100.00;98125.25;5064473;28;20200;-75
2022/01/10 06:52:11;;;;;;;56.10;22.23;;;;;;;7.94;100.00;98122.66;5061517;28;20631;-76
2022/01/10 06:54:38;;;;;;;46.07;21.27;;;;;;;7.94;100.00;98132.88;5061592;28;20201;-75
2022/01/10 06:57:06;;;;;;;54.30;20.57;;;;;;;7.95;100.00;98131.94;5061650;28;20203;-75
2022/01/10 06:59:33;;;;;;;52.90;24.57;;;;;;;7.93;100.00;98131.19;5066374;28;20441;-75
2022/01/10 07:02:00;;;;;;;53.63;24.53;;;;;;;7.93;100.00;98132.03;5065336;28;20200;-76
2022/01/10 07:04:28;;;;;;;56.47;26.53;;;;;;;7.95;100.00;98134.50;5069883;28;20286;-76
2022/01/10 07:06:57;;;;;;;69.53;30.10;;;;;;;7.97;100.00;98132.75;5069343;28;20211;-75
2022/01/10 07:09:24;;;;;;;56.47;26.87;;;;;;;8.01;100.00;98131.72;5064727;28;21023;-76
2022/01/10 07:11:51;;;;;;;50.40;21.83;;;;;;;7.97;100.00;98131.91;5062736;28;20196;-59
2022/01/10 07:14:19;;;;;;;51.77;23.00;;;;;;;7.95;100.00;98137.06;5064577;28;20192;-60
2022/01/10 07:16:48;;;;;;;53.30;21.20;;;;;;;7.93;100.00;98128.63;5065314;28;20204;-60
2022/01/10 07:19:15;;;;;;;52.83;26.87;;;;;;;7.99;100.00;98146.25;5068444;28;20291;-59
2022/01/10 07:21:43;;;;;;;65.80;31.60;;;;;;;7.99;100.00;98142.88;5062867;28;20211;-76
2022/01/10 07:24:10;;;;;;;63.10;30.67;;;;;;;8.09;100.00;98142.44;5063606;28;20220;-76
2022/01/10 07:26:37;;;;;;;59.67;28.43;;;;;;;8.08;100.00;98143.34;5056493;28;20193;-76
2022/01/10 07:29:07;;;;;;;57.43;25.50;;;;;;;7.95;100.00;98119.19;5061816;28;20223;-75
2022/01/10 07:31:35;;;;;;;83.87;37.00;;;;;;;8.14;100.00;98145.63;5068017;28;20611;-76
2022/01/10 07:34:02;;;;;;;160.13;74.97;;;;;;;8.17;100.00;98150.66;5057988;28;20557;-75
2022/01/10 07:36:29;;;;;;;103.40;47.20;;;;;;;8.17;100.00;98145.53;5060244;28;20214;-75
2022/01/10 07:38:56;;;;;;;135.03;62.27;;;;;;;8.27;100.00;98148.56;5064125;28;20203;-76
2022/01/10 07:41:23;;;;;;;91.37;37.90;;;;;;;8.25;100.00;98151.16;5065954;28;20205;-75
2022/01/10 07:43:51;;;;;;;78.40;35.50;;;;;;;8.25;100.00;98153.69;5067058;28;20234;-75
2022/01/10 07:46:19;;;;;;;65.03;29.27;;;;;;;8.23;100.00;98158.06;5060893;28;20218;-75
2022/01/10 07:48:47;;;;;;;71.83;30.53;;;;;;;8.18;100.00;98159.94;5063124;28;20230;-76
2022/01/10 07:51:14;;;;;;;77.73;34.53;;;;;;;8.10;100.00;98136.47;5057671;28;20729;-75
2022/01/10 07:53:42;;;;;;;115.27;43.17;;;;;;;8.22;100.00;98158.94;5065354;28;20259;-72
2022/01/10 07:56:10;;;;;;;79.50;32.43;;;;;;;8.16;100.00;98143.03;5063184;28;20204;-76
2022/01/10 07:58:37;;;;;;;83.37;34.60;;;;;;;8.21;100.00;98162.38;5066171;28;20207;-75
2022/01/10 08:01:05;;;;;;;80.87;31.83;;;;;;;8.26;100.00;98160.47;5064808;28;20200;-76
2022/01/10 08:03:32;;;;;;;78.00;32.13;;;;;;;8.25;100.00;98163.06;5069612;28;20204;-75
2022/01/10 08:06:00;;;;;;;62.37;26.70;;;;;;;8.28;100.00;98163.81;5069646;28;20672;-75
2022/01/10 08:08:28;;;;;;;55.63;22.53;;;;;;;8.35;100.00;98169.50;5060704;28;20225;-76
2022/01/10 08:10:55;;;;;;;57.50;25.37;;;;;;;8.37;100.00;98176.22;5067462;28;20200;-76
2022/01/10 08:13:23;;;;;;;65.30;31.27;;;;;;;8.37;100.00;98171.09;5066414;28;20277;-76
2022/01/10 08:15:50;;;;;;;70.70;29.43;;;;;;;8.40;100.00;98176.06;5065039;28;20267;-76
2022/01/10 08:18:17;;;;;;;73.00;29.40;;;;;;;8.48;100.00;98170.66;5060506;28;20204;-76
2022/01/10 08:20:44;;;;;;;64.87;26.10;;;;;;;8.49;100.00;98168.94;5067101;28;20207;-77
2022/01/10 08:23:12;;;;;;;82.60;41.23;;;;;;;8.47;100.00;98163.06;5068247;28;20212;-77
2022/01/10 08:25:39;;;;;;;87.27;41.13;;;;;;;8.43;100.00;98168.28;5065516;28;20692;-76
2022/01/10 08:28:06;;;;;;;91.73;39.23;;;;;;;8.34;100.00;98149.97;5064750;28;20200;-77
2022/01/10 08:30:33;;;;;;;80.90;34.03;;;;;;;8.47;100.00;98163.06;5063334;28;20557;-75
2022/01/10 08:33:00;;;;;;;73.50;32.87;;;;;;;8.51;100.00;98159.50;5061893;28;20208;-74
2022/01/10 08:35:27;;;;;;;63.87;28.73;;;;;;;8.51;100.00;98159.50;5064331;28;20265;-75
2022/01/10 08:37:53;;;;;;;143.40;50.70;;;;;;;8.49;100.00;98166.41;5065093;28;20247;-74
2022/01/10 08:40:22;;;;;;;144.50;51.20;;;;;;;8.53;100.00;98163.63;5069486;28;20200;-74
2022/01/10 08:42:49;;;;;;;135.70;45.10;;;;;;;8.46;100.00;98148.66;5066760;28;20203;-74
2022/01/10 08:45:15;;;;;;;104.50;33.17;;;;;;;8.60;100.00;98166.75;5067878;28;20220;-76
2022/01/10 08:47:42;;;;;;;76.13;25.27;;;;;;;8.57;100.00;98169.44;5066285;28;20668;-75
2022/01/10 08:50:12;;;;;;;56.40;22.03;;;;;;;8.47;100.00;98161.34;5059109;28;20204;-77
2022/01/10 08:52:40;;;;;;;65.73;20.70;;;;;;;8.50;100.00;98168.06;5057591;28;20220;-76
2022/01/10 08:55:08;;;;;;;72.20;27.07;;;;;;;8.51;100.00;98169.69;5066545;28;20203;-76
2022/01/10 08:57:37;;;;;;;71.87;28.23;;;;;;;8.41;100.00;98148.81;5063011;28;20242;-75
2022/01/10 09:00:05;;;;;;;65.63;27.13;;;;;;;8.56;100.00;98157.59;5069410;28;20263;-75
2022/01/10 09:02:32;;;;;;;75.47;29.13;;;;;;;8.57;100.00;98154.97;5058444;28;20200;-74
2022/01/10 09:04:59;;;;;;;81.20;29.83;;;;;;;8.60;100.00;98159.94;5065634;28;20691;-74
2022/01/10 09:07:26;;;;;;;92.03;35.07;;;;;;;8.69;100.00;98164.66;5069113;28;20699;-75
2022/01/10 09:09:53;;;;;;;123.30;39.93;;;;;;;8.65;100.00;98158.03;5066412;28;20210;-74
2022/01/10 09:12:19;;;;;;;97.77;36.70;;;;;;;8.67;100.00;98163.06;5061955;28;20196;-75
2022/01/10 09:14:48;;;;;;;112.80;45.23;;;;;;;8.57;100.00;98164.34;5069458;28;20206;-75
2022/01/10 09:17:15;;;;;;;72.27;29.73;;;;;;;8.58;100.00;98159.19;5063185;28;20204;-75
2022/01/10 09:19:41;;;;;;;76.20;29.20;;;;;;;8.58;100.00;98159.19;5062917;28;20203;-75
2022/01/10 09:22:08;;;;;;;59.53;27.60;;;;;;;8.52;100.00;98161.16;5062047;28;20208;-75
2022/01/10 09:24:35;;;;;;;70.90;28.40;;;;;;;8.53;100.00;98160.28;5062017;28;20228;-76
2022/01/10 09:27:02;;;;;;;54.27;24.53;;;;;;;8.57;100.00;98154.13;5058592;28;20278;-75
2022/01/10 09:29:29;;;;;;;53.73;25.20;;;;;;;8.62;100.00;98152.22;5067664;28;20211;-76
2022/01/10 09:31:57;;;;;;;69.60;30.27;;;;;;;8.63;100.00;98149.59;5064633;28;20205;-76
2022/01/10 09:34:24;;;;;;;48.97;23.03;;;;;;;8.65;100.00;98152.09;5068818;28;20208;-76
2022/01/10 09:36:50;;;;;;;44.73;21.47;;;;;;;8.63;100.00;98149.59;5065128;28;20204;-77
2022/01/10 09:39:19;;;;;;;44.17;22.43;;;;;;;8.66;100.00;98148.66;5066819;28;20199;-76
2022/01/10 09:41:47;;;;;;;44.40;22.70;;;;;;;8.67;100.00;98140.06;5064652;28;20208;-75
2022/01/10 09:44:14;;;;;;;31.53;16.83;;;;;;;8.67;100.00;98152.84;5060837;28;20253;-75
2022/01/10 09:46:41;;;;;;;33.93;16.77;;;;;;;8.72;100.00;98145.84;5058179;28;20660;-79
2022/01/10 09:49:09;;;;;;;33.37;17.23;;;;;;;8.69;100.00;98140.84;5066373;28;20210;-78
2022/01/10 09:51:36;;;;;;;30.97;17.43;;;;;;;8.66;100.00;98148.66;5069363;28;20206;-76
2022/01/10 09:54:03;;;;;;;32.57;20.10;;;;;;;8.58;100.00;98145.56;5060051;28;20265;-76
2022/01/10 09:56:31;;;;;;;27.50;16.60;;;;;;;8.53;100.00;98134.72;5066646;28;20676;-78
2022/01/10 09:58:59;;;;;;;32.77;16.90;;;;;;;8.57;100.00;98138.78;5065331;28;20247;-77
2022/01/10 10:01:28;;;;;;;34.80;17.00;;;;;;;8.52;100.00;98141.56;5062647;28;20593;-76
2022/01/10 10:03:58;;;;;;;29.47;15.13;;;;;;;8.56;100.00;98139.72;5061001;28;20205;-75
2022/01/10 10:06:27;;;;;;;28.10;15.10;;;;;;;8.53;100.00;98138.09;5063264;28;20227;-76
2022/01/10 10:08:57;;;;;;;27.13;13.47;;;;;;;8.54;100.00;98132.09;5058114;28;20227;-75
2022/01/10 10:11:24;;;;;;;27.63;12.57;;;;;;;8.57;100.00;98139.63;5061087;28;20208;-75
2022/01/10 10:13:54;;;;;;;22.13;12.60;;;;;;;8.41;100.00;98121.56;5062205;28;20208;-76
2022/01/10 10:16:21;;;;;;;22.53;13.20;;;;;;;8.51;100.00;98134.78;5063752;28;20572;-74
2022/01/10 10:18:48;;;;;;;26.80;15.40;;;;;;;8.56;100.00;98132.03;5055744;28;20566;-77
2022/01/10 10:21:16;;;;;;;30.83;14.40;;;;;;;8.58;100.00;98136.19;5067816;28;20225;-77
2022/01/10 10:23:48;;;;;;;30.83;15.20;;;;;;;8.56;100.00;98132.03;5062177;28;20211;-78
2022/01/10 10:26:19;;;;;;;27.63;15.33;;;;;;;8.58;100.00;98130.25;5063397;28;20222;-76
2022/01/10 10:28:47;;;;;;;26.10;14.30;;;;;;;8.60;100.00;98133.56;5070233;28;20212;-76
2022/01/10 10:31:14;;;;;;;26.37;14.80;;;;;;;8.61;100.00;98140.34;5066549;28;20204;-77
2022/01/10 10:33:49;;;;;;;24.03;14.40;;;;;;;8.65;100.00;98137.59;5066523;28;20199;-75
2022/01/10 10:36:17;;;;;;;21.07;13.43;;;;;;;8.68;100.00;98136.63;5064762;28;20259;-77
2022/01/10 10:38:46;;;;;;;19.70;11.83;;;;;;;8.66;100.00;98123.09;5061350;28;20204;-77
2022/01/10 10:41:13;;;;;;;15.23;11.20;;;;;;;8.68;100.00;98121.31;5063713;28;20207;-76
2022/01/10 10:43:42;;;;;;;20.50;12.97;;;;;;;8.70;100.00;98129.72;5061196;28;20201;-76
2022/01/10 10:46:13;;;;;;;21.23;13.97;;;;;;;8.67;100.00;98130.69;5064087;28;20234;-77
2022/01/10 10:48:41;;;;;;;17.80;12.63;;;;;;;8.68;100.00;98123.84;5063762;28;20294;-76
2022/01/10 10:51:08;;;;;;;28.73;15.30;;;;;;;8.71;100.00;98126.28;5059408;28;20691;-77
2022/01/10 10:53:35;;;;;;;29.23;14.93;;;;;;;8.71;100.00;98131.38;5060645;28;20204;-76
2022/01/10 10:56:06;;;;;;;23.17;14.30;;;;;;;8.66;100.00;98128.22;5066759;28;20206;-77
2022/01/10 10:58:33;;;;;;;25.80;15.70;;;;;;;8.74;100.00;98132.09;5057997;28;20611;-76
2022/01/10 11:01:07;;;;;;;28.20;15.87;;;;;;;8.69;100.00;98128.09;5063905;28;20205;-77
2022/01/10 11:03:36;;;;;;;21.03;12.77;;;;;;;8.74;100.00;98131.25;5052539;28;20649;-76
2022/01/10 11:06:05;;;;;;;24.83;14.53;;;;;;;8.76;100.00;98134.56;5062268;28;20219;-77
2022/01/10 11:08:35;;;;;;;20.53;12.60;;;;;;;8.77;100.00;98131.13;5067214;28;20227;-75
2022/01/10 11:11:04;;;;;;;19.80;11.93;;;;;;;8.73;100.00;98127.03;5063719;28;20211;-73
2022/01/10 11:13:32;;;;;;;19.43;12.87;;;;;;;8.77;100.00;98131.97;5065686;28;20199;-76
2022/01/10 11:15:59;;;;;;;28.47;14.10;;;;;;;8.72;100.00;98131.34;5057684;28;20220;-77
2022/01/10 11:18:27;;;;;;;23.70;14.37;;;;;;;8.75;100.00;98133.75;5067054;28;20204;-76
2022/01/10 11:20:57;;;;;;;23.80;13.73;;;;;;;8.65;100.00;98112.06;5066802;28;20208;-77
2022/01/10 11:23:24;;;;;;;24.23;15.53;;;;;;;8.74;100.00;98126.16;5061207;28;20208;-78
2022/01/10 11:25:52;;;;;;;23.17;16.00;;;;;;;8.75;100.00;98127.81;5061597;28;20213;-77